Time,TemperatureF,DewpointF,PressureIn,WindDirection,WindDirectionDegrees,WindSpeedMPH,WindSpeedGustMPH,Humidity,HourlyPrecipIn,Conditions,Clouds,dailyrainin,SoftwareType,DateUTC
2013-03-08 00:00:00,32.2,30.4,29.92,North,0,0.0,0.0,93,0.00,,,0.00,VWS V14.01,2013-03-08 05:00:00,
2013-03-08 00:01:00,32.2,30.4,29.92,North,0,0.0,0.0,93,0.00,,,0.00,VWS V14.01,2013-03-08 05:01:00,
2013-03-08 00:03:00,32.2,30.4,29.92,North,0,0.0,0.0,93,0.00,,,0.00,VWS V14.01,2013-03-08 05:03:00,
2013-03-08 00:08:00,32.2,30.4,29.92,North,0,0.0,0.0,93,0.00,,,0.00,VWS V14.01,2013-03-08 05:08:00,
2013-03-08 00:13:00,32.1,30.3,29.92,North,0,0.0,0.0,93,0.00,,,0.00,VWS V14.01,2013-03-08 05:13:00,
2013-03-08 00:18:00,32.1,30.3,29.92,North,0,0.0,0.0,93,0.00,,,0.00,VWS V14.01,2013-03-08 05:18:00,
2013-03-08 00:23:00,31.9,30.1,29.92,North,0,0.0,0.0,93,0.00,,,0.00,VWS V14.01,2013-03-08 05:23:00,
2013-03-08 00:28:00,31.8,30.0,29.92,North,0,0.0,0.0,93,0.00,,,0.00,VWS V14.01,2013-03-08 05:28:00,
2013-03-08 00:33:00,31.8,30.0,29.92,North,0,0.0,0.0,93,0.00,,,0.00,VWS V14.01,2013-03-08 05:33:00,
2013-03-08 00:38:00,31.8,30.0,29.92,North,0,0.0,0.0,93,0.00,,,0.00,VWS V14.01,2013-03-08 05:38:00,
2013-03-08 00:43:00,31.8,30.0,29.92,North,0,0.0,0.0,93,0.00,,,0.00,VWS V14.01,2013-03-08 05:43:00,
2013-03-08 00:48:00,31.8,30.0,29.92,North,0,0.0,0.0,93,0.00,,,0.00,VWS V14.01,2013-03-08 05:48:00,
2013-03-08 00:54:00,31.8,30.0,29.92,North,0,0.0,0.0,93,0.00,,,0.00,VWS V14.01,2013-03-08 05:54:00,
2013-03-08 00:59:00,31.8,30.0,29.92,North,0,0.0,0.0,93,0.00,,,0.00,VWS V14.01,2013-03-08 05:59:00,
2013-03-08 01:04:00,31.6,29.8,29.92,North,0,0.0,0.0,93,0.00,,,0.00,VWS V14.01,2013-03-08 06:04:00,
2013-03-08 01:09:00,31.6,29.8,29.92,North,0,0.0,0.0,93,0.00,,,0.00,VWS V14.01,2013-03-08 06:09:00,
2013-03-08 01:14:00,31.6,29.8,29.92,North,0,0.0,0.0,93,0.00,,,0.00,VWS V14.01,2013-03-08 06:14:00,
2013-03-08 01:19:00,31.6,29.8,29.92,North,0,0.0,0.0,93,0.00,,,0.00,VWS V14.01,2013-03-08 06:19:00,
2013-03-08 01:24:00,31.6,29.8,29.92,North,0,0.0,0.0,93,0.00,,,0.00,VWS V14.01,2013-03-08 06:24:00,
2013-03-08 01:29:00,31.6,29.8,29.92,North,0,0.0,0.0,93,0.00,,,0.00,VWS V14.01,2013-03-08 06:29:00,
2013-03-08 01:34:00,31.5,29.7,29.91,North,0,0.0,0.0,93,0.00,,,0.00,VWS V14.01,2013-03-08 06:34:00,
2013-03-08 01:39:00,31.5,29.7,29.91,North,0,0.0,0.0,93,0.00,,,0.00,VWS V14.01,2013-03-08 06:39:00,
2013-03-08 01:44:00,31.5,29.7,29.91,North,0,0.0,0.0,93,0.00,,,0.00,VWS V14.01,2013-03-08 06:44:00,
2013-03-08 01:49:00,31.5,29.7,29.91,North,0,0.0,0.0,93,0.00,,,0.00,VWS V14.01,2013-03-08 06:49:00,
2013-03-08 01:54:00,31.5,29.7,29.91,North,0,0.0,0.0,93,0.00,,,0.00,VWS V14.01,2013-03-08 06:54:00,
2013-03-08 01:59:00,31.5,29.7,29.91,North,0,0.0,0.0,93,0.00,,,0.00,VWS V14.01,2013-03-08 06:59:00,
2013-03-08 02:05:00,31.5,29.7,29.90,North,0,0.0,0.0,93,0.00,,,0.00,VWS V14.01,2013-03-08 07:05:00,
2013-03-08 02:10:00,31.5,29.7,29.90,North,0,0.0,0.0,93,0.00,,,0.00,VWS V14.01,2013-03-08 07:10:00,
2013-03-08 02:15:00,31.5,29.7,29.90,North,0,0.0,0.0,93,0.00,,,0.00,VWS V14.01,2013-03-08 07:15:00,
2013-03-08 02:20:00,31.5,29.7,29.89,North,0,0.0,0.0,93,0.00,,,0.00,VWS V14.01,2013-03-08 07:20:00,
2013-03-08 02:25:00,31.5,29.7,29.89,North,0,0.0,0.0,93,0.00,,,0.00,VWS V14.01,2013-03-08 07:25:00,
2013-03-08 02:30:00,31.5,29.7,29.89,North,0,0.0,0.0,93,0.00,,,0.00,VWS V14.01,2013-03-08 07:30:00,
2013-03-08 02:35:00,31.5,29.7,29.89,North,0,0.0,0.0,93,0.00,,,0.00,VWS V14.01,2013-03-08 07:35:00,
2013-03-08 02:40:00,31.5,29.7,29.89,North,0,0.0,0.0,93,0.00,,,0.00,VWS V14.01,2013-03-08 07:40:00,
2013-03-08 02:45:00,31.3,29.5,29.89,North,0,0.0,0.0,93,0.00,,,0.00,VWS V14.01,2013-03-08 07:45:00,
2013-03-08 02:50:00,31.3,29.5,29.89,North,0,0.0,0.0,93,0.00,,,0.00,VWS V14.01,2013-03-08 07:50:00,
2013-03-08 02:55:00,31.3,29.5,29.89,North,0,0.0,0.0,93,0.00,,,0.00,VWS V14.01,2013-03-08 07:55:00,
2013-03-08 03:00:00,31.3,29.5,29.89,North,0,0.0,0.0,93,0.00,,,0.00,VWS V14.01,2013-03-08 08:00:00,
2013-03-08 03:05:00,31.3,29.5,29.89,North,0,0.0,0.0,93,0.00,,,0.00,VWS V14.01,2013-03-08 08:05:00,
2013-03-08 03:11:00,31.3,29.5,29.89,North,0,0.0,0.0,93,0.00,,,0.00,VWS V14.01,2013-03-08 08:11:00,
2013-03-08 03:16:00,31.3,29.5,29.88,North,0,0.0,0.0,93,0.00,,,0.00,VWS V14.01,2013-03-08 08:16:00,
2013-03-08 03:21:00,31.2,29.4,29.88,North,0,0.0,0.0,93,0.00,,,0.00,VWS V14.01,2013-03-08 08:21:00,
2013-03-08 03:26:00,31.2,29.4,29.88,North,0,0.0,0.0,93,0.00,,,0.00,VWS V14.01,2013-03-08 08:26:00,
2013-03-08 03:31:00,31.2,29.4,29.88,North,0,0.0,0.0,93,0.00,,,0.00,VWS V14.01,2013-03-08 08:31:00,
2013-03-08 03:36:00,31.2,29.4,29.88,North,0,0.0,0.0,93,0.00,,,0.00,VWS V14.01,2013-03-08 08:36:00,
2013-03-08 03:41:00,31.2,29.4,29.88,North,0,0.0,0.0,93,0.00,,,0.00,VWS V14.01,2013-03-08 08:41:00,
2013-03-08 03:46:00,31.2,29.4,29.88,North,0,0.0,0.0,93,0.00,,,0.00,VWS V14.01,2013-03-08 08:46:00,
2013-03-08 03:51:00,31.2,29.4,29.88,North,0,0.0,0.0,93,0.00,,,0.00,VWS V14.01,2013-03-08 08:51:00,
2013-03-08 03:56:00,31.2,29.4,29.88,North,0,0.0,0.0,93,0.00,,,0.00,VWS V14.01,2013-03-08 08:56:00,
2013-03-08 04:01:00,31.2,29.4,29.88,North,0,0.0,0.0,93,0.00,,,0.00,VWS V14.01,2013-03-08 09:01:00,
2013-03-08 04:06:00,31.0,29.2,29.88,North,0,0.0,0.0,93,0.00,,,0.00,VWS V14.01,2013-03-08 09:06:00,
2013-03-08 04:12:00,31.0,29.2,29.88,North,0,0.0,0.0,93,0.00,,,0.00,VWS V14.01,2013-03-08 09:12:00,
2013-03-08 04:17:00,31.0,29.2,29.88,North,0,0.0,0.0,93,0.00,,,0.00,VWS V14.01,2013-03-08 09:17:00,
2013-03-08 04:22:00,31.0,29.2,29.88,North,0,0.0,0.0,93,0.00,,,0.00,VWS V14.01,2013-03-08 09:22:00,
2013-03-08 04:27:00,31.0,29.2,29.88,North,0,0.0,0.0,93,0.00,,,0.00,VWS V14.01,2013-03-08 09:27:00,
2013-03-08 04:32:00,31.0,29.2,29.88,North,0,0.0,0.0,93,0.00,,,0.00,VWS V14.01,2013-03-08 09:32:00,
2013-03-08 04:37:00,30.9,29.1,29.88,North,0,0.0,0.0,93,0.00,,,0.00,VWS V14.01,2013-03-08 09:37:00,
2013-03-08 04:42:00,30.9,29.1,29.88,North,0,0.0,0.0,93,0.00,,,0.00,VWS V14.01,2013-03-08 09:42:00,
2013-03-08 04:47:00,30.9,29.1,29.88,North,0,0.0,0.0,93,0.00,,,0.00,VWS V14.01,2013-03-08 09:47:00,
2013-03-08 04:52:00,30.9,29.1,29.88,North,0,0.0,0.0,93,0.00,,,0.00,VWS V14.01,2013-03-08 09:52:00,
2013-03-08 04:57:00,30.9,29.1,29.88,North,0,0.0,0.0,93,0.00,,,0.00,VWS V14.01,2013-03-08 09:57:00,
2013-03-08 05:02:00,30.9,29.4,29.88,North,0,0.0,0.0,94,0.00,,,0.00,VWS V14.01,2013-03-08 10:02:00,
2013-03-08 05:07:00,30.9,29.4,29.88,North,0,0.0,0.0,94,0.00,,,0.00,VWS V14.01,2013-03-08 10:07:00,
2013-03-08 05:12:00,30.9,29.4,29.88,North,0,0.0,0.0,94,0.00,,,0.00,VWS V14.01,2013-03-08 10:12:00,
2013-03-08 05:17:00,30.7,29.2,29.87,North,0,0.0,0.0,94,0.00,,,0.00,VWS V14.01,2013-03-08 10:17:00,
2013-03-08 05:22:00,30.9,29.4,29.87,North,0,0.0,0.0,94,0.00,,,0.00,VWS V14.01,2013-03-08 10:22:00,
2013-03-08 05:28:00,30.7,29.2,29.87,North,0,0.0,0.0,94,0.00,,,0.00,VWS V14.01,2013-03-08 10:28:00,
2013-03-08 05:33:00,30.7,29.2,29.87,North,0,0.0,0.0,94,0.00,,,0.00,VWS V14.01,2013-03-08 10:33:00,
2013-03-08 05:38:00,30.7,29.2,29.87,North,0,0.0,0.0,94,0.00,,,0.00,VWS V14.01,2013-03-08 10:38:00,
2013-03-08 05:43:00,30.7,29.2,29.87,North,0,0.0,0.0,94,0.00,,,0.00,VWS V14.01,2013-03-08 10:43:00,
2013-03-08 05:48:00,30.7,29.2,29.87,North,0,0.0,0.0,94,0.00,,,0.00,VWS V14.01,2013-03-08 10:48:00,
2013-03-08 05:53:00,30.7,29.2,29.87,North,0,0.0,0.0,94,0.00,,,0.00,VWS V14.01,2013-03-08 10:53:00,
2013-03-08 05:58:00,30.7,29.2,29.87,North,0,0.0,0.0,94,0.00,,,0.00,VWS V14.01,2013-03-08 10:58:00,
2013-03-08 06:03:00,30.7,29.2,29.87,North,0,0.0,0.0,94,0.00,,,0.00,VWS V14.01,2013-03-08 11:03:00,
2013-03-08 06:08:00,30.7,29.2,29.87,North,0,0.0,0.0,94,0.00,,,0.00,VWS V14.01,2013-03-08 11:08:00,
2013-03-08 06:13:00,30.7,29.2,29.87,North,0,0.0,0.0,94,0.00,,,0.00,VWS V14.01,2013-03-08 11:13:00,
2013-03-08 06:18:00,30.7,29.2,29.87,North,0,0.0,0.0,94,0.00,,,0.00,VWS V14.01,2013-03-08 11:18:00,
2013-03-08 06:23:00,30.7,29.2,29.87,North,0,0.0,0.0,94,0.00,,,0.00,VWS V14.01,2013-03-08 11:23:00,
2013-03-08 06:29:00,30.7,29.2,29.87,North,1,0.0,0.0,94,0.00,,,0.00,VWS V14.01,2013-03-08 11:29:00,
2013-03-08 06:34:00,30.7,29.2,29.88,North,0,0.0,0.0,94,0.00,,,0.00,VWS V14.01,2013-03-08 11:34:00,
2013-03-08 06:39:00,30.7,29.2,29.88,North,0,0.0,0.0,94,0.00,,,0.00,VWS V14.01,2013-03-08 11:39:00,
2013-03-08 06:44:00,30.7,29.2,29.88,North,0,0.0,0.0,94,0.00,,,0.00,VWS V14.01,2013-03-08 11:44:00,
2013-03-08 06:49:00,30.7,29.2,29.88,North,0,0.0,0.0,94,0.00,,,0.00,VWS V14.01,2013-03-08 11:49:00,
2013-03-08 06:54:00,30.6,29.1,29.88,North,0,0.0,0.0,94,0.00,,,0.00,VWS V14.01,2013-03-08 11:54:00,
2013-03-08 06:59:00,30.6,29.1,29.88,North,0,0.0,0.0,94,0.00,,,0.00,VWS V14.01,2013-03-08 11:59:00,
2013-03-08 07:04:00,30.6,29.1,29.88,North,0,0.0,0.0,94,0.00,,,0.00,VWS V14.01,2013-03-08 12:04:00,
2013-03-08 07:09:00,30.7,29.2,29.88,North,1,0.0,0.0,94,0.00,,,0.00,VWS V14.01,2013-03-08 12:09:00,
2013-03-08 07:14:00,30.6,29.1,29.88,North,1,0.0,0.0,94,0.00,,,0.00,VWS V14.01,2013-03-08 12:14:00,
2013-03-08 07:19:00,30.6,29.1,29.88,North,1,0.0,0.0,94,0.00,,,0.00,VWS V14.01,2013-03-08 12:19:00,
2013-03-08 07:24:00,30.7,29.2,29.88,North,0,0.0,0.0,94,0.00,,,0.00,VWS V14.01,2013-03-08 12:24:00,
2013-03-08 07:29:00,30.7,29.2,29.88,North,0,0.0,0.0,94,0.00,,,0.00,VWS V14.01,2013-03-08 12:29:00,
2013-03-08 07:35:00,30.7,29.2,29.88,North,1,0.0,0.0,94,0.00,,,0.00,VWS V14.01,2013-03-08 12:35:00,
2013-03-08 07:40:00,30.7,29.2,29.88,North,0,0.0,0.0,94,0.00,,,0.00,VWS V14.01,2013-03-08 12:40:00,
2013-03-08 07:45:00,30.7,29.2,29.89,North,1,0.0,0.0,94,0.00,,,0.00,VWS V14.01,2013-03-08 12:45:00,
2013-03-08 07:50:00,30.7,29.2,29.89,North,1,0.0,0.0,94,0.00,,,0.00,VWS V14.01,2013-03-08 12:50:00,
2013-03-08 07:55:00,30.7,29.2,29.89,North,1,0.0,0.0,94,0.00,,,0.00,VWS V14.01,2013-03-08 12:55:00,
2013-03-08 08:00:00,30.9,29.4,29.89,North,1,0.0,0.0,94,0.00,,,0.00,VWS V14.01,2013-03-08 13:00:00,
2013-03-08 08:05:00,30.9,29.4,29.89,North,1,0.0,0.0,94,0.00,,,0.00,VWS V14.01,2013-03-08 13:05:00,
2013-03-08 08:10:00,31.0,29.5,29.89,North,1,0.0,0.0,94,0.00,,,0.00,VWS V14.01,2013-03-08 13:10:00,
2013-03-08 08:15:00,31.0,29.5,29.89,North,1,0.0,0.0,94,0.00,,,0.00,VWS V14.01,2013-03-08 13:15:00,
2013-03-08 08:20:00,31.0,29.5,29.89,North,1,0.0,0.0,94,0.00,,,0.00,VWS V14.01,2013-03-08 13:20:00,
2013-03-08 08:26:00,31.0,29.5,29.89,North,1,0.0,0.0,94,0.00,,,0.00,VWS V14.01,2013-03-08 13:26:00,
2013-03-08 08:31:00,31.2,29.7,29.89,North,1,0.0,0.0,94,0.00,,,0.00,VWS V14.01,2013-03-08 13:31:00,
2013-03-08 08:36:00,31.2,29.7,29.89,North,1,0.0,0.0,94,0.00,,,0.00,VWS V14.01,2013-03-08 13:36:00,
2013-03-08 08:41:00,31.2,29.7,29.89,North,1,0.0,0.0,94,0.00,,,0.00,VWS V14.01,2013-03-08 13:41:00,
2013-03-08 08:46:00,31.3,29.8,29.89,North,1,0.0,0.0,94,0.00,,,0.00,VWS V14.01,2013-03-08 13:46:00,
2013-03-08 08:51:00,31.3,29.8,29.89,North,1,0.0,0.0,94,0.00,,,0.00,VWS V14.01,2013-03-08 13:51:00,
2013-03-08 08:56:00,31.5,30.0,29.89,North,1,0.0,0.0,94,0.00,,,0.00,VWS V14.01,2013-03-08 13:56:00,
2013-03-08 09:01:00,31.5,30.0,29.89,North,1,0.0,0.0,94,0.00,,,0.00,VWS V14.01,2013-03-08 14:01:00,
2013-03-08 09:06:00,31.5,30.0,29.89,North,1,0.0,0.0,94,0.00,,,0.00,VWS V14.01,2013-03-08 14:06:00,
2013-03-08 09:11:00,31.6,30.1,29.89,North,1,0.0,0.0,94,0.00,,,0.00,VWS V14.01,2013-03-08 14:11:00,
2013-03-08 09:16:00,31.6,30.1,29.90,North,1,0.0,0.0,94,0.00,,,0.00,VWS V14.01,2013-03-08 14:16:00,
2013-03-08 09:22:00,31.8,30.3,29.90,North,0,0.0,0.0,94,0.00,,,0.00,VWS V14.01,2013-03-08 14:22:00,
2013-03-08 09:27:00,31.8,30.3,29.90,North,0,0.0,0.0,94,0.00,,,0.00,VWS V14.01,2013-03-08 14:27:00,
2013-03-08 09:32:00,31.9,30.4,29.90,North,0,0.0,0.0,94,0.00,,,0.00,VWS V14.01,2013-03-08 14:32:00,
2013-03-08 09:37:00,31.9,30.4,29.90,North,0,0.0,0.0,94,0.00,,,0.00,VWS V14.01,2013-03-08 14:37:00,
2013-03-08 09:42:00,31.9,30.4,29.90,North,0,0.0,0.0,94,0.00,,,0.00,VWS V14.01,2013-03-08 14:42:00,
2013-03-08 09:47:00,31.9,30.4,29.89,North,0,0.0,0.0,94,0.00,,,0.00,VWS V14.01,2013-03-08 14:47:00,
2013-03-08 09:52:00,31.9,30.4,29.89,North,0,0.0,0.0,94,0.00,,,0.00,VWS V14.01,2013-03-08 14:52:00,
2013-03-08 09:57:00,31.9,30.4,29.89,North,0,0.0,0.0,94,0.00,,,0.00,VWS V14.01,2013-03-08 14:57:00,
2013-03-08 10:02:00,31.9,30.4,29.90,North,0,0.0,0.0,94,0.00,,,0.00,VWS V14.01,2013-03-08 15:02:00,
2013-03-08 10:08:00,32.1,30.6,29.90,North,0,0.0,0.0,94,0.00,,,0.00,VWS V14.01,2013-03-08 15:08:00,
2013-03-08 10:13:00,32.1,30.6,29.90,North,0,0.0,0.0,94,0.00,,,0.00,VWS V14.01,2013-03-08 15:13:00,
2013-03-08 10:18:00,32.1,30.6,29.91,North,0,0.0,0.0,94,0.00,,,0.00,VWS V14.01,2013-03-08 15:18:00,
2013-03-08 10:23:00,32.1,30.6,29.91,North,0,0.0,0.0,94,0.00,,,0.00,VWS V14.01,2013-03-08 15:23:00,
2013-03-08 10:28:00,32.2,30.7,29.91,North,0,0.0,0.0,94,0.00,,,0.00,VWS V14.01,2013-03-08 15:28:00,
2013-03-08 10:33:00,32.2,30.7,29.91,North,0,0.0,0.0,94,0.00,,,0.00,VWS V14.01,2013-03-08 15:33:00,
2013-03-08 10:38:00,32.4,30.9,29.91,North,0,0.0,0.0,94,0.00,,,0.00,VWS V14.01,2013-03-08 15:38:00,
2013-03-08 10:43:00,32.4,30.9,29.91,North,0,0.0,0.0,94,0.00,,,0.00,VWS V14.01,2013-03-08 15:43:00,
2013-03-08 10:48:00,32.5,31.0,29.91,North,0,0.0,0.0,94,0.00,,,0.00,VWS V14.01,2013-03-08 15:48:00,
2013-03-08 10:53:00,32.5,31.0,29.91,NNW,328,0.0,0.0,94,0.00,,,0.00,VWS V14.01,2013-03-08 15:53:00,
2013-03-08 10:58:00,32.7,31.2,29.91,NW,318,0.0,0.0,94,0.00,,,0.00,VWS V14.01,2013-03-08 15:58:00,
2013-03-08 11:03:00,32.8,31.3,29.91,NW,316,0.0,0.0,94,0.00,,,0.00,VWS V14.01,2013-03-08 16:03:00,
2013-03-08 11:08:00,32.9,31.4,29.91,NW,319,0.0,0.0,94,0.00,,OVC049,0.00,VWS V14.01,2013-03-08 16:08:00,
2013-03-08 11:13:00,32.9,31.4,29.91,NW,320,0.0,0.0,94,0.00,,OVC049,0.00,VWS V14.01,2013-03-08 16:13:00,
2013-03-08 11:19:00,33.1,31.6,29.91,NW,325,0.0,0.0,94,0.00,,OVC049,0.00,VWS V14.01,2013-03-08 16:19:00,
2013-03-08 11:24:00,33.1,31.6,29.91,NNW,328,0.0,0.0,94,0.00,,OVC049,0.00,VWS V14.01,2013-03-08 16:24:00,
2013-03-08 11:29:00,33.2,31.7,29.91,North,0,0.0,0.0,94,0.00,,OVC049,0.00,VWS V14.01,2013-03-08 16:29:00,
2013-03-08 11:34:00,33.2,31.7,29.91,North,0,0.0,0.0,94,0.00,,OVC049,0.00,VWS V14.01,2013-03-08 16:34:00,
2013-03-08 11:39:00,33.2,31.7,29.91,North,0,0.0,0.0,94,0.00,,OVC049,0.00,VWS V14.01,2013-03-08 16:39:00,
2013-03-08 11:44:00,33.4,31.9,29.91,North,353,0.0,0.0,94,0.00,,OVC049,0.00,VWS V14.01,2013-03-08 16:44:00,
2013-03-08 11:49:00,33.4,31.9,29.92,NNW,340,0.0,0.0,94,0.00,,OVC049,0.00,VWS V14.01,2013-03-08 16:49:00,
2013-03-08 11:54:00,33.5,32.0,29.92,North,353,2.0,8.0,94,0.00,,OVC049,0.00,VWS V14.01,2013-03-08 16:54:00,
2013-03-08 11:59:00,33.5,32.0,29.92,NNW,329,0.0,7.0,94,0.00,,OVC049,0.00,VWS V14.01,2013-03-08 16:59:00,
2013-03-08 12:04:00,33.5,32.0,29.92,WNW,289,1.0,8.0,94,0.00,,OVC049,0.00,VWS V14.01,2013-03-08 17:04:00,
2013-03-08 12:10:00,33.7,32.2,29.92,NW,322,3.0,12.0,94,0.00,,OVC050,0.00,VWS V14.01,2013-03-08 17:10:00,
2013-03-08 12:15:00,33.7,32.2,29.92,North,0,12.0,16.0,94,0.00,,OVC050,0.00,VWS V14.01,2013-03-08 17:15:00,
2013-03-08 12:20:00,33.5,32.0,29.92,NNW,346,1.0,6.0,94,0.00,,OVC050,0.00,VWS V14.01,2013-03-08 17:20:00,
2013-03-08 12:25:00,33.5,32.0,29.92,North,349,3.0,5.0,94,0.00,,OVC050,0.00,VWS V14.01,2013-03-08 17:25:00,
2013-03-08 12:30:00,33.5,32.0,29.92,West,265,2.0,3.0,94,0.00,,OVC050,0.00,VWS V14.01,2013-03-08 17:30:00,
2013-03-08 12:35:00,33.5,32.0,29.92,North,350,0.0,4.0,94,0.00,,OVC050,0.00,VWS V14.01,2013-03-08 17:35:00,
2013-03-08 12:40:00,33.5,32.0,29.92,NNE,13,0.0,2.0,94,0.00,,OVC050,0.00,VWS V14.01,2013-03-08 17:40:00,
2013-03-08 12:45:00,33.5,32.0,29.92,East,99,2.0,6.0,94,0.00,,OVC050,0.00,VWS V14.01,2013-03-08 17:45:00,
2013-03-08 12:50:00,33.5,32.0,29.92,North,359,5.0,10.0,94,0.00,,OVC050,0.00,VWS V14.01,2013-03-08 17:50:00,
2013-03-08 12:55:00,33.5,32.0,29.92,NW,309,1.0,11.0,94,0.00,,OVC050,0.00,VWS V14.01,2013-03-08 17:55:00,
2013-03-08 13:00:00,33.7,32.2,29.91,North,0,1.0,3.0,94,0.00,,OVC050,0.00,VWS V14.01,2013-03-08 18:00:00,
2013-03-08 13:06:00,33.7,32.2,29.91,NNW,333,7.0,8.0,94,0.00,,OVC050,0.00,VWS V14.01,2013-03-08 18:06:00,
2013-03-08 13:11:00,33.7,32.2,29.91,NW,323,0.0,5.0,94,0.00,,OVC060,0.00,VWS V14.01,2013-03-08 18:11:00,
2013-03-08 13:16:00,33.7,32.2,29.92,East,95,2.0,3.0,94,0.00,,OVC060,0.00,VWS V14.01,2013-03-08 18:16:00,
2013-03-08 13:21:00,33.8,32.3,29.92,North,0,7.0,11.0,94,0.00,,OVC060,0.00,VWS V14.01,2013-03-08 18:21:00,
2013-03-08 13:26:00,33.8,32.3,29.92,North,0,0.0,5.0,94,0.00,,OVC060,0.00,VWS V14.01,2013-03-08 18:26:00,
2013-03-08 13:31:00,34.0,32.5,29.93,NNE,14,1.0,6.0,94,0.00,,OVC060,0.00,VWS V14.01,2013-03-08 18:31:00,
2013-03-08 13:36:00,34.0,32.5,29.93,North,349,0.0,3.0,94,0.00,,OVC060,0.00,VWS V14.01,2013-03-08 18:36:00,
2013-03-08 13:41:00,34.1,32.6,29.93,North,0,2.0,6.0,94,0.00,,OVC060,0.00,VWS V14.01,2013-03-08 18:41:00,
2013-03-08 13:46:00,34.3,32.8,29.94,North,0,2.0,3.0,94,0.00,,OVC060,0.00,VWS V14.01,2013-03-08 18:46:00,
2013-03-08 13:51:00,34.4,32.9,29.94,North,0,0.0,0.0,94,0.00,,OVC060,0.00,VWS V14.01,2013-03-08 18:51:00,
2013-03-08 13:56:00,34.4,32.9,29.94,WNW,299,2.0,6.0,94,0.00,,OVC060,0.00,VWS V14.01,2013-03-08 18:56:00,
2013-03-08 14:01:00,34.7,33.2,29.93,North,352,0.0,5.0,94,0.00,,SCT049,0.00,VWS V14.01,2013-03-08 19:01:00,
2013-03-08 14:07:00,34.9,33.3,29.93,North,0,5.0,5.0,94,0.00,,SCT049,0.00,VWS V14.01,2013-03-08 19:07:00,
2013-03-08 14:12:00,35.0,33.5,29.93,North,0,2.0,2.0,94,0.00,,SCT049,0.00,VWS V14.01,2013-03-08 19:12:00,
2013-03-08 14:17:00,35.0,33.5,29.93,WNW,295,0.0,6.0,94,0.00,,SCT049,0.00,VWS V14.01,2013-03-08 19:17:00,
2013-03-08 14:22:00,35.0,33.5,29.93,NW,306,0.0,2.0,94,0.00,,SCT049,0.00,VWS V14.01,2013-03-08 19:22:00,
2013-03-08 14:27:00,35.2,33.7,29.93,North,8,5.0,7.0,94,0.00,,SCT049,0.00,VWS V14.01,2013-03-08 19:27:00,
2013-03-08 14:32:00,35.3,33.8,29.94,North,359,1.0,3.0,94,0.00,,SCT049,0.00,VWS V14.01,2013-03-08 19:32:00,
2013-03-08 14:37:00,35.3,33.8,29.94,North,1,0.0,4.0,94,0.00,,SCT049,0.00,VWS V14.01,2013-03-08 19:37:00,
2013-03-08 14:42:00,35.3,33.8,29.94,North,1,1.0,3.0,94,0.00,,SCT049,0.00,VWS V14.01,2013-03-08 19:42:00,
2013-03-08 14:47:00,35.3,33.8,29.94,North,3,1.0,5.0,94,0.00,,SCT049,0.00,VWS V14.01,2013-03-08 19:47:00,
2013-03-08 14:52:00,35.3,33.8,29.94,North,1,0.0,0.0,94,0.00,,SCT049,0.00,VWS V14.01,2013-03-08 19:52:00,
2013-03-08 14:58:00,35.3,33.5,29.94,NW,322,1.0,3.0,93,0.00,,SCT049,0.00,VWS V14.01,2013-03-08 19:58:00,
2013-03-08 15:03:00,35.3,33.5,29.94,NNW,346,0.0,3.0,93,0.00,,OVC075,0.00,VWS V14.01,2013-03-08 20:03:00,
2013-03-08 15:08:00,35.2,33.4,29.94,North,6,1.0,3.0,93,0.00,,OVC075,0.00,VWS V14.01,2013-03-08 20:08:00,
2013-03-08 15:13:00,35.3,33.5,29.94,North,0,0.0,2.0,93,0.00,,OVC075,0.00,VWS V14.01,2013-03-08 20:13:00,
2013-03-08 15:18:00,35.3,33.5,29.95,NNW,342,2.0,2.0,93,0.00,,OVC075,0.00,VWS V14.01,2013-03-08 20:18:00,
2013-03-08 15:23:00,35.3,33.5,29.95,North,0,2.0,2.0,93,0.00,,OVC075,0.00,VWS V14.01,2013-03-08 20:23:00,
2013-03-08 15:28:00,35.3,33.5,29.95,WNW,291,3.0,11.0,93,0.00,,OVC075,0.00,VWS V14.01,2013-03-08 20:28:00,
2013-03-08 15:33:00,35.3,33.5,29.95,NNW,339,7.0,9.0,93,0.00,,OVC075,0.00,VWS V14.01,2013-03-08 20:33:00,
2013-03-08 15:38:00,35.3,33.5,29.95,NNW,342,2.0,6.0,93,0.00,,OVC075,0.00,VWS V14.01,2013-03-08 20:38:00,
2013-03-08 15:43:00,35.3,33.5,29.95,NW,318,2.0,6.0,93,0.00,,OVC075,0.00,VWS V14.01,2013-03-08 20:43:00,
2013-03-08 15:49:00,35.3,33.2,29.96,North,10,2.0,6.0,92,0.00,,OVC075,0.00,VWS V14.01,2013-03-08 20:49:00,
2013-03-08 15:54:00,35.3,33.2,29.96,NNW,343,2.0,8.0,92,0.00,,OVC075,0.00,VWS V14.01,2013-03-08 20:54:00,
2013-03-08 15:59:00,35.3,33.2,29.96,NNW,337,6.0,6.0,92,0.00,,OVC090,0.00,VWS V14.01,2013-03-08 20:59:00,
2013-03-08 16:04:00,35.3,33.2,29.97,North,0,0.0,0.0,92,0.00,,OVC090,0.00,VWS V14.01,2013-03-08 21:04:00,
2013-03-08 16:09:00,35.3,32.9,29.97,NNE,16,5.0,5.0,91,0.00,,OVC090,0.00,VWS V14.01,2013-03-08 21:09:00,
2013-03-08 16:14:00,35.2,32.8,29.97,North,350,0.0,3.0,91,0.00,,OVC090,0.00,VWS V14.01,2013-03-08 21:14:00,
2013-03-08 16:19:00,35.0,32.6,29.98,North,350,4.0,9.0,91,0.00,,OVC090,0.00,VWS V14.01,2013-03-08 21:19:00,
2013-03-08 16:24:00,35.0,32.4,29.98,NNW,339,3.0,7.0,90,0.00,,OVC090,0.00,VWS V14.01,2013-03-08 21:24:00,
2013-03-08 16:29:00,34.9,32.3,29.98,North,357,6.0,12.0,90,0.00,,OVC090,0.00,VWS V14.01,2013-03-08 21:29:00,
2013-03-08 16:34:00,34.9,32.3,29.98,North,0,1.0,3.0,90,0.00,,OVC090,0.00,VWS V14.01,2013-03-08 21:34:00,
2013-03-08 16:40:00,35.0,32.4,29.98,NNW,346,0.0,3.0,90,0.00,,OVC090,0.00,VWS V14.01,2013-03-08 21:40:00,
2013-03-08 16:45:00,35.0,32.1,29.98,NNW,347,0.0,3.0,89,0.00,,OVC090,0.00,VWS V14.01,2013-03-08 21:45:00,
2013-03-08 16:50:00,35.0,32.1,29.99,NNW,347,2.0,2.0,89,0.00,,OVC090,0.00,VWS V14.01,2013-03-08 21:50:00,
2013-03-08 16:55:00,35.0,32.1,29.99,North,353,3.0,5.0,89,0.00,,OVC090,0.00,VWS V14.01,2013-03-08 21:55:00,
2013-03-08 17:00:00,34.9,31.7,30.00,NNW,330,0.0,2.0,88,0.00,,OVC095,0.00,VWS V14.01,2013-03-08 22:00:00,
2013-03-08 17:05:00,34.9,31.7,30.00,North,6,3.0,4.0,88,0.00,,OVC095,0.00,VWS V14.01,2013-03-08 22:05:00,
2013-03-08 17:10:00,34.9,31.7,30.00,North,8,1.0,1.0,88,0.00,,OVC095,0.00,VWS V14.01,2013-03-08 22:10:00,
2013-03-08 17:15:00,34.9,31.7,30.00,NW,315,0.0,2.0,88,0.00,,OVC095,0.00,VWS V14.01,2013-03-08 22:15:00,
2013-03-08 17:20:00,34.9,31.7,30.00,North,3,2.0,2.0,88,0.00,,OVC095,0.00,VWS V14.01,2013-03-08 22:20:00,
2013-03-08 17:25:00,34.9,31.4,30.00,NNW,346,0.0,2.0,87,0.00,,OVC095,0.00,VWS V14.01,2013-03-08 22:25:00,
2013-03-08 17:30:00,34.7,31.2,30.01,NNW,339,0.0,0.0,87,0.00,,OVC095,0.00,VWS V14.01,2013-03-08 22:30:00,
2013-03-08 17:36:00,34.7,31.2,30.01,WNW,282,1.0,2.0,87,0.00,,OVC095,0.00,VWS V14.01,2013-03-08 22:36:00,
2013-03-08 17:41:00,34.7,31.2,30.01,WNW,291,0.0,3.0,87,0.00,,OVC095,0.00,VWS V14.01,2013-03-08 22:41:00,
2013-03-08 17:46:00,34.6,31.1,30.02,WNW,302,0.0,0.0,87,0.00,,OVC095,0.00,VWS V14.01,2013-03-08 22:46:00,
2013-03-08 17:51:00,34.6,31.1,30.02,WNW,302,0.0,1.0,87,0.00,,OVC095,0.00,VWS V14.01,2013-03-08 22:51:00,
2013-03-08 17:56:00,34.4,30.9,30.02,WNW,302,0.0,0.0,87,0.00,,OVC095,0.00,VWS V14.01,2013-03-08 22:56:00,
2013-03-08 18:01:00,34.4,30.9,30.02,NW,304,0.0,2.0,87,0.00,,OVC100,0.00,VWS V14.01,2013-03-08 23:01:00,
2013-03-08 18:06:00,34.3,30.8,30.02,NW,304,1.0,1.0,87,0.00,,OVC100,0.00,VWS V14.01,2013-03-08 23:06:00,
2013-03-08 18:11:00,34.3,30.8,30.02,NW,304,0.0,0.0,87,0.00,,OVC100,0.00,VWS V14.01,2013-03-08 23:11:00,
2013-03-08 18:16:00,34.1,30.6,30.03,NW,304,0.0,2.0,87,0.00,,OVC100,0.00,VWS V14.01,2013-03-08 23:16:00,
2013-03-08 18:22:00,34.0,30.5,30.03,NW,304,0.0,1.0,87,0.00,,OVC100,0.00,VWS V14.01,2013-03-08 23:22:00,
2013-03-08 18:27:00,33.8,30.4,30.03,NW,304,0.0,1.0,87,0.00,,OVC100,0.00,VWS V14.01,2013-03-08 23:27:00,
2013-03-08 18:32:00,33.8,30.4,30.03,NW,304,0.0,0.0,87,0.00,,OVC100,0.00,VWS V14.01,2013-03-08 23:32:00,
2013-03-08 18:37:00,33.7,30.2,30.03,NW,304,0.0,0.0,87,0.00,,OVC100,0.00,VWS V14.01,2013-03-08 23:37:00,
2013-03-08 18:42:00,33.7,30.5,30.03,NW,304,0.0,0.0,88,0.00,,OVC100,0.00,VWS V14.01,2013-03-08 23:42:00,
2013-03-08 18:47:00,33.5,30.3,30.04,NW,304,0.0,0.0,88,0.00,,OVC100,0.00,VWS V14.01,2013-03-08 23:47:00,
2013-03-08 18:52:00,33.5,30.3,30.04,NW,304,0.0,0.0,88,0.00,,OVC100,0.00,VWS V14.01,2013-03-08 23:52:00,
2013-03-08 18:57:00,33.4,30.2,30.04,NW,304,0.0,1.0,88,0.00,,OVC100,0.00,VWS V14.01,2013-03-08 23:57:00,
2013-03-08 19:02:00,33.4,30.2,30.05,NW,304,0.0,0.0,88,0.00,,OVC110,0.00,VWS V14.01,2013-03-09 00:02:00,
2013-03-08 19:07:00,33.2,30.0,30.05,NW,304,0.0,0.0,88,0.07,,OVC110,0.07,VWS V14.01,2013-03-09 00:07:00,
2013-03-08 19:12:00,32.9,30.0,30.05,NW,304,0.0,0.0,89,0.07,,OVC110,0.07,VWS V14.01,2013-03-09 00:12:00,
2013-03-08 19:18:00,32.8,29.9,30.05,NW,304,0.0,1.0,89,0.07,,OVC110,0.07,VWS V14.01,2013-03-09 00:18:00,
2013-03-08 19:23:00,32.7,30.1,30.05,NW,304,0.0,0.0,90,0.07,,OVC110,0.07,VWS V14.01,2013-03-09 00:23:00,
2013-03-08 19:28:00,32.5,29.9,30.05,NW,304,0.0,1.0,90,0.07,,OVC110,0.07,VWS V14.01,2013-03-09 00:28:00,
2013-03-08 19:33:00,32.5,29.9,30.05,NW,304,0.0,1.0,90,0.07,,OVC110,0.07,VWS V14.01,2013-03-09 00:33:00,
2013-03-08 19:38:00,32.4,30.1,30.05,NW,304,2.0,2.0,91,0.07,,OVC110,0.07,VWS V14.01,2013-03-09 00:38:00,
2013-03-08 19:43:00,32.4,30.1,30.05,NW,305,0.0,0.0,91,0.07,,OVC110,0.07,VWS V14.01,2013-03-09 00:43:00,
2013-03-08 19:48:00,32.2,29.9,30.06,NW,305,0.0,0.0,91,0.07,,OVC110,0.07,VWS V14.01,2013-03-09 00:48:00,
2013-03-08 19:53:00,32.2,29.9,30.06,NW,305,0.0,0.0,91,0.07,,OVC110,0.07,VWS V14.01,2013-03-09 00:53:00,
2013-03-08 19:58:00,32.1,30.0,30.06,NW,305,0.0,0.0,92,0.07,,SCT100,0.07,VWS V14.01,2013-03-09 00:58:00,
2013-03-08 20:03:00,32.1,30.0,30.06,NW,305,2.0,2.0,92,0.07,,SCT100,0.07,VWS V14.01,2013-03-09 01:03:00,
2013-03-08 20:08:00,32.1,30.0,30.06,NW,306,0.0,0.0,92,0.07,,SCT100,0.07,VWS V14.01,2013-03-09 01:08:00,
2013-03-08 20:14:00,32.1,30.0,30.06,NW,306,0.0,0.0,92,0.00,,SCT100,0.07,VWS V14.01,2013-03-09 01:14:00,
2013-03-08 20:19:00,31.9,29.8,30.07,NW,306,0.0,0.0,92,0.00,,SCT100,0.07,VWS V14.01,2013-03-09 01:19:00,
2013-03-08 20:24:00,31.9,30.1,30.07,NW,306,0.0,0.0,93,0.00,,SCT100,0.07,VWS V14.01,2013-03-09 01:24:00,
2013-03-08 20:29:00,31.9,30.1,30.07,NW,306,0.0,0.0,93,0.00,,SCT100,0.07,VWS V14.01,2013-03-09 01:29:00,
2013-03-08 20:34:00,31.9,30.1,30.07,NW,306,0.0,0.0,93,0.00,,SCT100,0.07,VWS V14.01,2013-03-09 01:34:00,
2013-03-08 20:39:00,31.8,30.0,30.07,NW,306,0.0,1.0,93,0.00,,SCT100,0.07,VWS V14.01,2013-03-09 01:39:00,
2013-03-08 20:44:00,31.8,30.0,30.07,NW,308,0.0,0.0,93,0.00,,SCT100,0.07,VWS V14.01,2013-03-09 01:44:00,
2013-03-08 20:49:00,31.8,30.0,30.07,NW,308,0.0,0.0,93,0.00,,SCT100,0.07,VWS V14.01,2013-03-09 01:49:00,
2013-03-08 20:54:00,31.8,30.0,30.07,NW,308,0.0,1.0,93,0.00,,SCT100,0.07,VWS V14.01,2013-03-09 01:54:00,
2013-03-08 20:59:00,31.6,29.8,30.07,North,353,2.0,5.0,93,0.00,,SCT100,0.07,VWS V14.01,2013-03-09 01:59:00,
2013-03-08 21:05:00,31.6,29.8,30.08,North,353,2.0,2.0,93,0.00,,SCT100,0.07,VWS V14.01,2013-03-09 02:05:00,
2013-03-08 21:10:00,31.6,29.8,30.08,North,353,1.0,2.0,93,0.00,,SCT100,0.07,VWS V14.01,2013-03-09 02:10:00,
2013-03-08 21:15:00,31.5,29.7,30.08,North,353,0.0,0.0,93,0.00,,SCT100,0.07,VWS V14.01,2013-03-09 02:15:00,
2013-03-08 21:20:00,31.5,29.7,30.08,SE,130,1.0,2.0,93,0.00,,CLR,0.07,VWS V14.01,2013-03-09 02:20:00,
2013-03-08 21:25:00,31.3,29.5,30.08,North,349,1.0,2.0,93,0.00,,CLR,0.07,VWS V14.01,2013-03-09 02:25:00,
2013-03-08 21:30:00,31.3,29.5,30.09,North,350,0.0,2.0,93,0.00,,CLR,0.07,VWS V14.01,2013-03-09 02:30:00,
2013-03-08 21:35:00,31.2,29.7,30.09,North,350,0.0,0.0,94,0.00,,CLR,0.07,VWS V14.01,2013-03-09 02:35:00,
2013-03-08 21:40:00,31.2,29.7,30.09,North,350,0.0,1.0,94,0.00,,CLR,0.07,VWS V14.01,2013-03-09 02:40:00,
2013-03-08 21:45:00,31.0,29.5,30.09,North,350,0.0,0.0,94,0.00,,CLR,0.07,VWS V14.01,2013-03-09 02:45:00,
2013-03-08 21:50:00,31.0,29.5,30.09,North,350,0.0,0.0,94,0.00,,CLR,0.07,VWS V14.01,2013-03-09 02:50:00,
2013-03-08 21:55:00,30.9,29.4,30.09,North,350,0.0,0.0,94,0.00,,CLR,0.07,VWS V14.01,2013-03-09 02:55:00,
2013-03-08 22:00:00,30.7,29.2,30.09,North,350,0.0,1.0,94,0.00,,CLR,0.07,VWS V14.01,2013-03-09 03:00:00,
2013-03-08 22:05:00,30.6,29.1,30.09,North,350,0.0,1.0,94,0.00,,CLR,0.07,VWS V14.01,2013-03-09 03:05:00,
2013-03-08 22:10:00,30.4,28.9,30.09,North,350,0.0,0.0,94,0.00,,CLR,0.07,VWS V14.01,2013-03-09 03:10:00,
2013-03-08 22:16:00,30.3,28.8,30.09,North,350,0.0,0.0,94,0.00,,CLR,0.07,VWS V14.01,2013-03-09 03:16:00,
2013-03-08 22:21:00,30.1,28.6,30.09,North,350,1.0,1.0,94,0.00,,CLR,0.07,VWS V14.01,2013-03-09 03:21:00,
2013-03-08 22:26:00,30.1,28.6,30.09,North,350,0.0,0.0,94,0.00,,CLR,0.07,VWS V14.01,2013-03-09 03:26:00,
2013-03-08 22:31:00,30.0,28.5,30.09,North,350,0.0,0.0,94,0.00,,CLR,0.07,VWS V14.01,2013-03-09 03:31:00,
2013-03-08 22:36:00,29.8,28.3,30.09,North,350,0.0,0.0,94,0.00,,CLR,0.07,VWS V14.01,2013-03-09 03:36:00,
2013-03-08 22:41:00,29.8,28.3,30.09,North,350,0.0,0.0,94,0.00,,CLR,0.07,VWS V14.01,2013-03-09 03:41:00,
2013-03-08 22:46:00,29.7,28.2,30.09,North,350,0.0,0.0,94,0.00,,CLR,0.07,VWS V14.01,2013-03-09 03:46:00,
2013-03-08 22:51:00,29.5,28.0,30.09,North,350,0.0,0.0,94,0.00,,CLR,0.07,VWS V14.01,2013-03-09 03:51:00,
2013-03-08 22:56:00,29.5,28.0,30.09,North,350,0.0,1.0,94,0.00,,CLR,0.07,VWS V14.01,2013-03-09 03:56:00,
2013-03-08 23:01:00,29.4,27.9,30.09,North,359,0.0,2.0,94,0.00,,CLR,0.07,VWS V14.01,2013-03-09 04:01:00,
2013-03-08 23:07:00,29.4,27.9,30.09,North,4,0.0,4.0,94,0.00,,CLR,0.07,VWS V14.01,2013-03-09 04:07:00,
2013-03-08 23:12:00,29.4,27.9,30.09,NNW,332,0.0,1.0,94,0.00,,CLR,0.07,VWS V14.01,2013-03-09 04:12:00,
2013-03-08 23:17:00,29.4,27.9,30.09,NNW,332,1.0,1.0,94,0.00,,CLR,0.07,VWS V14.01,2013-03-09 04:17:00,
2013-03-08 23:22:00,29.3,27.8,30.09,NNW,332,0.0,0.0,94,0.00,,CLR,0.07,VWS V14.01,2013-03-09 04:22:00,
2013-03-08 23:27:00,29.3,27.8,30.09,NNW,332,0.0,1.0,94,0.00,,CLR,0.07,VWS V14.01,2013-03-09 04:27:00,
2013-03-08 23:32:00,29.3,27.8,30.09,NNW,332,0.0,0.0,94,0.00,,CLR,0.07,VWS V14.01,2013-03-09 04:32:00,
2013-03-08 23:37:00,29.1,27.6,30.09,NNW,332,0.0,0.0,94,0.00,,CLR,0.07,VWS V14.01,2013-03-09 04:37:00,
2013-03-08 23:42:00,29.1,27.6,30.09,NNW,332,0.0,0.0,94,0.00,,CLR,0.07,VWS V14.01,2013-03-09 04:42:00,
2013-03-08 23:47:00,29.0,27.5,30.09,NNW,332,0.0,0.0,94,0.00,,CLR,0.07,VWS V14.01,2013-03-09 04:47:00,
2013-03-08 23:52:00,28.8,27.3,30.09,NNW,332,0.0,0.0,94,0.00,,CLR,0.07,VWS V14.01,2013-03-09 04:52:00,
2013-03-08 23:57:00,28.8,27.3,30.09,NNW,332,0.0,0.0,94,0.00,,CLR,0.07,VWS V14.01,2013-03-09 04:57:00,